Time;durP1;ratioP1;P1;durP2;ratioP2;P2;SDS_P1;SDS_P2;PMS_P1;PMS_P2;Temp;Humidity;BMP_temperature;BMP_pressure;BME280_temperature;BME280_humidity;BME280_pressure;Samples;Min_cycle;Max_cycle;Signal;HPM_P1;HPM_P2
2023/08/29 00:00:34;;;;;;;4.70;2.43;;;18.10;99.90;;;;;;5095683;27;20198;-64
2023/08/29 00:03:03;;;;;;;4.10;2.23;;;18.10;99.90;;;;;;5093666;28;20626;-64
2023/08/29 00:05:33;;;;;;;2.33;2.13;;;18.10;99.90;;;;;;5096933;27;20213;-65
2023/08/29 00:07:58;;;;;;;4.03;2.77;;;18.10;99.90;;;;;;5100367;27;20188;-65
2023/08/29 00:10:27;;;;;;;3.47;2.57;;;18.00;99.90;;;;;;5092835;28;20260;-65
2023/08/29 00:13:04;;;;;;;4.97;2.83;;;17.90;99.90;;;;;;5096531;28;20239;-64
2023/08/29 00:15:30;;;;;;;3.33;2.40;;;17.80;99.90;;;;;;5098739;28;20200;-58
2023/08/29 00:17:56;;;;;;;2.23;2.03;;;17.80;99.90;;;;;;5095349;28;20201;-57
2023/08/29 00:20:21;;;;;;;2.63;2.43;;;17.80;99.90;;;;;;5095413;28;20748;-57
2023/08/29 00:22:47;;;;;;;7.37;2.50;;;17.80;99.90;;;;;;5096588;28;20200;-57
2023/08/29 00:25:12;;;;;;;2.40;2.20;;;17.80;99.90;;;;;;5092665;28;20200;-57
2023/08/29 00:27:38;;;;;;;3.67;2.30;;;17.80;99.90;;;;;;5095111;28;20221;-58
2023/08/29 00:30:04;;;;;;;5.00;2.80;;;17.80;99.90;;;;;;5091196;28;20198;-60
2023/08/29 00:32:29;;;;;;;3.10;2.10;;;17.80;99.90;;;;;;5092519;28;20759;-59
2023/08/29 00:34:55;;;;;;;4.83;2.60;;;17.70;99.90;;;;;;5092411;28;20205;-60
2023/08/29 00:37:20;;;;;;;2.93;2.63;;;17.70;99.90;;;;;;5092670;28;20231;-57
2023/08/29 00:39:46;;;;;;;2.77;2.50;;;17.70;99.90;;;;;;5092372;28;20201;-56
2023/08/29 00:42:11;;;;;;;4.10;2.73;;;17.80;99.90;;;;;;5091735;28;20209;-56
2023/08/29 00:44:38;;;;;;;2.97;2.77;;;17.90;99.90;;;;;;5086249;28;20193;-55
2023/08/29 00:47:04;;;;;;;2.93;2.63;;;17.90;99.90;;;;;;5093703;28;20193;-55
2023/08/29 00:49:29;;;;;;;2.40;2.20;;;17.90;99.90;;;;;;5086693;28;20189;-64
2023/08/29 00:51:56;;;;;;;2.47;2.27;;;17.80;99.90;;;;;;5095330;28;20216;-60
2023/08/29 00:54:21;;;;;;;5.27;3.27;;;17.80;99.90;;;;;;5083258;28;20193;-55
2023/08/29 00:56:48;;;;;;;4.23;3.67;;;17.70;99.90;;;;;;5094505;28;20211;-55
2023/08/29 00:59:14;;;;;;;3.47;2.43;;;17.70;99.90;;;;;;5092063;28;20197;-57
2023/08/29 01:01:40;;;;;;;3.33;2.73;;;17.70;99.90;;;;;;5094384;27;20266;-55
2023/08/29 01:04:06;;;;;;;3.77;2.57;;;17.70;99.90;;;;;;5099533;27;20784;-55
2023/08/29 01:06:33;;;;;;;3.23;2.93;;;17.60;99.90;;;;;;5098220;27;20281;-55
2023/08/29 01:08:59;;;;;;;3.47;3.20;;;17.50;99.90;;;;;;5095315;27;20637;-55
2023/08/29 01:11:54;;;;;;;5.17;2.93;;;17.50;99.90;;;;;;5095769;28;20229;-55
2023/08/29 01:14:42;;;;;;;4.73;3.33;;;17.50;99.90;;;;;;5097894;27;20262;-55
2023/08/29 01:17:23;;;;;;;3.90;2.80;;;17.50;99.90;;;;;;5094900;27;20196;-55
2023/08/29 01:19:52;;;;;;;3.40;3.10;;;17.60;99.90;;;;;;5095542;27;20222;-55
2023/08/29 01:22:25;;;;;;;6.73;2.80;;;17.50;99.90;;;;;;5096718;27;20186;-55
2023/08/29 01:24:58;;;;;;;3.30;2.90;;;17.60;99.90;;;;;;5096619;27;20205;-55
2023/08/29 01:27:25;;;;;;;2.60;2.40;;;17.60;99.90;;;;;;5094125;28;20285;-55
2023/08/29 01:29:51;;;;;;;4.27;3.03;;;17.60;99.90;;;;;;5093844;28;20196;-55
2023/08/29 01:32:17;;;;;;;3.20;2.30;;;17.70;99.90;;;;;;5089538;28;20224;-56
2023/08/29 01:34:44;;;;;;;3.77;2.50;;;17.70;99.90;;;;;;5096242;27;20220;-56
2023/08/29 01:37:09;;;;;;;3.20;2.67;;;17.60;99.90;;;;;;5100563;27;20259;-56
2023/08/29 01:39:37;;;;;;;3.20;2.50;;;17.60;99.90;;;;;;5098133;27;20205;-56
2023/08/29 01:42:02;;;;;;;2.83;2.53;;;17.60;99.90;;;;;;5095522;27;20200;-57
2023/08/29 01:44:28;;;;;;;4.07;2.60;;;17.60;99.90;;;;;;5092405;28;20196;-56
2023/08/29 01:46:57;;;;;;;5.00;2.63;;;17.40;99.90;;;;;;5099462;27;20196;-55
2023/08/29 01:49:22;;;;;;;2.80;2.60;;;17.40;99.90;;;;;;5092087;28;20229;-56
2023/08/29 01:51:48;;;;;;;4.00;3.10;;;17.40;99.90;;;;;;5094326;27;20836;-55
2023/08/29 01:54:13;;;;;;;2.57;2.37;;;17.40;99.90;;;;;;5100339;27;20280;-56
2023/08/29 01:56:40;;;;;;;2.63;2.43;;;17.50;99.90;;;;;;5099462;27;20716;-57
2023/08/29 01:59:06;;;;;;;5.13;2.60;;;17.40;99.90;;;;;;5096105;27;20699;-56
2023/08/29 02:01:32;;;;;;;3.57;2.40;;;17.40;99.90;;;;;;5092771;27;20227;-55
2023/08/29 02:03:58;;;;;;;5.23;3.23;;;17.40;99.90;;;;;;5095114;27;20732;-56
2023/08/29 02:06:23;;;;;;;2.53;2.33;;;17.30;99.90;;;;;;5093113;27;20198;-56
2023/08/29 02:08:49;;;;;;;2.83;2.37;;;17.20;99.90;;;;;;5090013;28;20217;-57
2023/08/29 02:11:14;;;;;;;3.17;2.37;;;17.20;99.90;;;;;;5095235;27;20301;-56
2023/08/29 02:13:40;;;;;;;4.80;2.33;;;17.00;99.90;;;;;;5092331;27;20204;-56
2023/08/29 02:16:05;;;;;;;2.50;2.30;;;17.00;99.90;;;;;;5091506;28;20593;-56
2023/08/29 02:18:31;;;;;;;2.27;2.07;;;17.10;99.90;;;;;;5094604;28;20670;-55
2023/08/29 02:20:56;;;;;;;2.20;1.90;;;17.20;99.90;;;;;;5098717;27;20232;-57
2023/08/29 02:23:23;;;;;;;3.33;2.30;;;17.20;99.90;;;;;;5092217;28;21084;-57
2023/08/29 02:26:03;;;;;;;3.67;2.10;;;17.20;99.90;;;;;;5096776;27;20193;-57
2023/08/29 02:28:29;;;;;;;1.93;1.50;;;17.20;99.90;;;;;;5093190;27;20284;-59
2023/08/29 02:30:54;;;;;;;1.90;1.80;;;17.20;99.90;;;;;;5093407;28;20199;-58
2023/08/29 02:33:20;;;;;;;2.60;2.30;;;17.20;99.90;;;;;;5095706;27;20223;-56
2023/08/29 02:35:45;;;;;;;2.10;1.90;;;17.20;99.90;;;;;;5099905;27;20197;-56
2023/08/29 02:38:11;;;;;;;1.83;1.73;;;17.20;99.90;;;;;;5096533;27;20196;-55
2023/08/29 02:40:36;;;;;;;3.03;1.77;;;17.20;99.90;;;;;;5095048;27;20205;-56
2023/08/29 02:43:03;;;;;;;3.43;2.00;;;17.10;99.90;;;;;;5095624;27;20197;-55
2023/08/29 02:45:28;;;;;;;6.30;5.70;;;17.20;99.90;;;;;;5089313;28;20201;-55
2023/08/29 02:47:54;;;;;;;2.87;2.00;;;17.20;99.90;;;;;;5094442;28;20599;-56
2023/08/29 02:50:19;;;;;;;2.70;1.77;;;17.10;99.90;;;;;;5091926;28;20747;-56
2023/08/29 02:52:44;;;;;;;1.70;1.60;;;17.00;99.90;;;;;;5094739;27;20220;-56
2023/08/29 02:55:10;;;;;;;2.30;1.43;;;17.20;99.90;;;;;;5092176;28;20193;-56
2023/08/29 02:57:35;;;;;;;1.67;1.50;;;17.20;99.90;;;;;;5094004;28;20718;-57
2023/08/29 03:00:01;;;;;;;1.57;1.47;;;17.20;99.90;;;;;;5102135;27;20272;-57
2023/08/29 03:02:26;;;;;;;1.80;1.70;;;17.10;99.90;;;;;;5093136;27;20206;-57
2023/08/29 03:04:54;;;;;;;2.10;2.00;;;17.10;99.90;;;;;;5097071;27;20189;-56
2023/08/29 03:07:19;;;;;;;4.30;2.03;;;17.00;99.90;;;;;;5097563;27;20188;-57
2023/08/29 03:09:45;;;;;;;2.13;1.90;;;16.90;99.90;;;;;;5094940;27;20203;-57
2023/08/29 03:12:10;;;;;;;2.43;1.73;;;17.00;99.90;;;;;;5095795;27;20228;-56
2023/08/29 03:14:36;;;;;;;1.63;1.53;;;16.90;99.90;;;;;;5096548;27;20197;-56
2023/08/29 03:17:01;;;;;;;2.80;1.43;;;16.90;99.90;;;;;;5094069;27;20280;-56
2023/08/29 03:19:27;;;;;;;2.03;1.40;;;16.90;99.90;;;;;;5095467;28;20209;-55
2023/08/29 03:21:52;;;;;;;2.70;2.13;;;16.80;99.90;;;;;;5090426;28;20200;-57
2023/08/29 03:24:18;;;;;;;2.00;1.80;;;16.90;99.90;;;;;;5094682;27;20999;-57
2023/08/29 03:26:43;;;;;;;1.70;1.60;;;16.90;99.90;;;;;;5095723;27;20200;-57
2023/08/29 03:29:09;;;;;;;1.63;1.53;;;17.00;99.90;;;;;;5096400;27;20334;-57
2023/08/29 03:31:34;;;;;;;2.43;1.80;;;16.90;99.90;;;;;;5093008;28;20252;-57
2023/08/29 03:34:02;;;;;;;1.50;1.40;;;16.80;99.90;;;;;;5095974;27;21111;-58
2023/08/29 03:36:27;;;;;;;1.43;1.33;;;16.70;99.90;;;;;;5096183;27;20193;-57
2023/08/29 03:38:53;;;;;;;2.70;1.60;;;16.60;99.90;;;;;;5088659;28;20213;-58
2023/08/29 03:41:18;;;;;;;1.57;1.47;;;16.60;99.90;;;;;;5089795;28;20268;-58
2023/08/29 03:43:44;;;;;;;2.80;1.40;;;16.70;99.90;;;;;;5084760;28;20205;-57
2023/08/29 03:46:09;;;;;;;1.30;1.20;;;16.70;99.90;;;;;;5096527;27;20196;-56
2023/08/29 03:48:36;;;;;;;1.73;1.63;;;16.60;99.90;;;;;;5099002;27;20693;-56
2023/08/29 03:51:07;;;;;;;1.77;1.53;;;16.70;99.90;;;;;;5095632;27;20647;-57
2023/08/29 03:53:34;;;;;;;1.90;1.70;;;16.60;99.90;;;;;;5092439;27;20201;-57
2023/08/29 03:56:04;;;;;;;3.27;1.60;;;16.60;99.90;;;;;;5097278;27;20259;-57
2023/08/29 03:58:30;;;;;;;1.70;1.60;;;16.70;99.90;;;;;;5097729;27;20201;-55
2023/08/29 04:00:57;;;;;;;7.97;2.17;;;16.40;99.90;;;;;;5092782;28;20756;-55
2023/08/29 04:03:22;;;;;;;2.40;1.80;;;16.40;99.90;;;;;;5095494;27;20359;-56
2023/08/29 04:05:48;;;;;;;1.47;1.33;;;16.30;99.90;;;;;;5093521;28;20702;-56
2023/08/29 04:08:13;;;;;;;2.07;1.87;;;16.40;99.90;;;;;;5096171;28;20288;-60
2023/08/29 04:10:40;;;;;;;3.93;2.07;;;16.40;99.90;;;;;;5089885;28;20215;-59
2023/08/29 04:13:06;;;;;;;3.50;1.93;;;16.30;99.90;;;;;;5094368;28;20219;-59
2023/08/29 04:15:33;;;;;;;1.97;1.77;;;16.30;99.90;;;;;;5092538;28;20193;-56
2023/08/29 04:17:59;;;;;;;2.00;1.80;;;16.40;99.90;;;;;;5088128;28;20650;-56
2023/08/29 04:20:25;;;;;;;3.07;2.03;;;16.40;99.90;;;;;;5092606;28;20242;-56
2023/08/29 04:22:51;;;;;;;2.17;1.97;;;16.50;99.90;;;;;;5096793;28;20234;-56
2023/08/29 04:25:17;;;;;;;3.27;1.87;;;16.60;99.90;;;;;;5094785;28;20256;-57
2023/08/29 04:27:43;;;;;;;2.30;1.90;;;16.60;99.90;;;;;;5102199;28;20212;-57
2023/08/29 04:30:09;;;;;;;1.70;1.60;;;16.50;99.90;;;;;;5091035;28;20202;-57
2023/08/29 04:32:36;;;;;;;3.90;1.97;;;16.50;99.90;;;;;;5101539;28;20243;-57
2023/08/29 04:35:04;;;;;;;2.10;1.40;;;16.50;99.90;;;;;;5097576;27;20363;-57
2023/08/29 04:37:29;;;;;;;1.83;1.67;;;16.50;99.90;;;;;;5096367;27;20205;-57
2023/08/29 04:39:54;;;;;;;2.10;1.43;;;16.50;99.90;;;;;;5096209;27;20903;-57
2023/08/29 04:42:20;;;;;;;2.17;1.70;;;16.50;99.90;;;;;;5099507;27;20296;-57
2023/08/29 04:44:45;;;;;;;3.30;1.50;;;16.40;99.90;;;;;;5095580;27;20651;-56
2023/08/29 04:47:11;;;;;;;1.70;1.60;;;16.30;99.90;;;;;;5096098;28;20216;-57
2023/08/29 04:49:36;;;;;;;2.10;2.00;;;16.30;99.90;;;;;;5099775;27;20192;-57
2023/08/29 04:52:02;;;;;;;2.97;2.03;;;16.30;99.90;;;;;;5098538;27;20296;-56
2023/08/29 04:54:28;;;;;;;1.90;1.80;;;16.30;99.90;;;;;;5100578;27;20245;-57
2023/08/29 04:56:53;;;;;;;1.97;1.40;;;16.40;99.90;;;;;;5096943;27;20287;-56
2023/08/29 04:59:19;;;;;;;2.23;1.50;;;16.30;99.90;;;;;;5099689;27;20211;-56
2023/08/29 05:01:44;;;;;;;2.00;1.90;;;16.30;99.90;;;;;;5101262;27;20359;-57
2023/08/29 05:04:10;;;;;;;2.27;1.90;;;16.30;99.90;;;;;;5096218;27;20193;-56
2023/08/29 05:06:36;;;;;;;1.63;1.53;;;16.40;99.90;;;;;;5098116;27;20200;-57
2023/08/29 05:09:02;;;;;;;2.87;1.77;;;16.40;99.90;;;;;;5094069;27;20284;-57
2023/08/29 05:11:27;;;;;;;2.47;2.23;;;16.30;99.90;;;;;;5094431;28;20335;-57
2023/08/29 05:13:53;;;;;;;2.90;1.80;;;16.30;99.90;;;;;;5096913;27;20905;-57
2023/08/29 05:16:18;;;;;;;1.87;1.77;;;16.30;99.90;;;;;;5091925;27;20652;-57
2023/08/29 05:18:44;;;;;;;1.60;1.50;;;16.30;99.90;;;;;;5094316;28;20234;-57
2023/08/29 05:21:09;;;;;;;1.90;1.80;;;16.30;99.90;;;;;;5095132;27;20204;-57
2023/08/29 05:23:35;;;;;;;1.93;1.83;;;16.30;99.90;;;;;;5095902;27;20201;-58
2023/08/29 05:26:00;;;;;;;2.13;1.90;;;16.30;99.90;;;;;;5094052;28;20196;-57
2023/08/29 05:28:26;;;;;;;1.90;1.70;;;16.20;99.90;;;;;;5097184;27;20708;-58
2023/08/29 05:30:51;;;;;;;2.23;2.00;;;16.20;99.90;;;;;;5102102;27;20299;-57
2023/08/29 05:33:16;;;;;;;2.63;2.13;;;16.30;99.90;;;;;;5101284;27;20678;-56
2023/08/29 05:35:43;;;;;;;2.07;1.90;;;16.40;99.90;;;;;;5099542;27;20383;-55
2023/08/29 05:38:08;;;;;;;2.00;1.90;;;16.40;99.90;;;;;;5097004;27;20325;-55
2023/08/29 05:40:34;;;;;;;3.53;2.10;;;16.40;99.90;;;;;;5101477;27;20868;-56
2023/08/29 05:43:00;;;;;;;4.17;2.40;;;16.30;99.90;;;;;;5097004;27;20207;-56
2023/08/29 05:45:26;;;;;;;4.03;2.10;;;16.30;99.90;;;;;;5092271;27;20209;-56
2023/08/29 05:47:51;;;;;;;2.80;1.90;;;16.30;99.90;;;;;;5097128;28;20201;-55
2023/08/29 05:50:17;;;;;;;2.23;1.97;;;16.30;99.90;;;;;;5093903;27;20250;-55
2023/08/29 05:52:43;;;;;;;3.97;2.13;;;16.20;99.90;;;;;;5095359;27;20512;-55
2023/08/29 05:55:08;;;;;;;4.17;1.97;;;16.20;99.90;;;;;;5095238;28;20193;-57
2023/08/29 05:57:34;;;;;;;2.03;1.80;;;16.30;99.90;;;;;;5099510;27;20345;-57
2023/08/29 05:59:59;;;;;;;3.80;1.97;;;16.30;99.90;;;;;;5093862;28;21009;-57
2023/08/29 06:02:25;;;;;;;4.70;2.67;;;16.30;99.90;;;;;;5096996;28;20220;-57
2023/08/29 06:04:50;;;;;;;2.47;2.03;;;16.30;99.90;;;;;;5095392;28;20203;-57
2023/08/29 06:07:16;;;;;;;3.60;2.73;;;16.40;99.90;;;;;;5094834;27;20737;-55
2023/08/29 06:09:41;;;;;;;3.67;2.63;;;16.40;99.90;;;;;;5094942;27;20193;-57
2023/08/29 06:12:07;;;;;;;4.23;2.07;;;16.40;99.90;;;;;;5094069;27;20816;-55
2023/08/29 06:14:36;;;;;;;3.30;3.00;;;16.30;99.90;;;;;;5091355;27;20211;-54
2023/08/29 06:17:01;;;;;;;5.50;2.77;;;16.30;99.90;;;;;;5098606;27;20204;-63
2023/08/29 06:19:27;;;;;;;3.10;2.13;;;16.40;99.90;;;;;;5093000;27;20211;-65
2023/08/29 06:21:52;;;;;;;2.87;2.60;;;16.40;99.90;;;;;;5090584;27;20204;-55
2023/08/29 06:24:18;;;;;;;5.13;2.70;;;16.40;99.90;;;;;;5091161;27;20197;-57
2023/08/29 06:26:43;;;;;;;3.80;2.23;;;16.50;99.90;;;;;;5098233;27;20480;-56
2023/08/29 06:29:09;;;;;;;3.10;2.80;;;16.50;99.90;;;;;;5091742;27;20231;-57
2023/08/29 06:31:34;;;;;;;2.40;2.20;;;16.60;99.90;;;;;;5092017;27;20241;-57
2023/08/29 06:34:00;;;;;;;4.00;2.63;;;16.50;99.90;;;;;;5090729;27;20197;-56
2023/08/29 06:36:26;;;;;;;5.60;2.67;;;16.60;99.90;;;;;;5092528;27;20216;-57
2023/08/29 06:38:52;;;;;;;2.93;2.30;;;16.60;99.90;;;;;;5092123;28;20258;-57
2023/08/29 06:41:17;;;;;;;2.60;2.40;;;16.60;99.90;;;;;;5098228;27;20941;-63
2023/08/29 06:43:49;;;;;;;2.50;2.30;;;16.60;99.90;;;;;;5104439;27;20601;-60
2023/08/29 06:46:23;;;;;;;5.83;2.87;;;16.60;99.90;;;;;;5086353;27;20242;-68
2023/08/29 06:48:49;;;;;;;7.63;2.90;;;16.60;99.90;;;;;;5088963;27;20234;-63
2023/08/29 06:51:17;;;;;;;2.77;2.30;;;16.60;99.90;;;;;;5095897;28;20244;-63
2023/08/29 06:53:43;;;;;;;2.70;2.50;;;16.60;99.90;;;;;;5096900;27;20201;-59
2023/08/29 06:56:16;;;;;;;8.30;3.00;;;16.60;99.90;;;;;;5091376;27;20201;-61
2023/08/29 06:58:45;;;;;;;2.77;2.37;;;16.60;99.90;;;;;;5091001;28;20288;-65
2023/08/29 07:01:11;;;;;;;4.53;2.87;;;16.60;99.90;;;;;;5092355;28;20284;-59
2023/08/29 07:03:37;;;;;;;5.20;4.63;;;16.60;99.90;;;;;;5091750;28;20219;-57
2023/08/29 07:06:02;;;;;;;3.00;2.77;;;16.50;99.90;;;;;;5099788;27;20204;-60
2023/08/29 07:08:28;;;;;;;2.90;2.70;;;16.40;99.90;;;;;;5097323;27;20617;-60
2023/08/29 07:10:53;;;;;;;2.57;2.37;;;16.50;99.90;;;;;;5093331;27;20197;-62
2023/08/29 07:13:19;;;;;;;2.93;2.73;;;16.50;99.90;;;;;;5099646;27;20205;-63
2023/08/29 07:15:45;;;;;;;3.87;3.00;;;16.60;99.90;;;;;;5090094;27;20197;-62
2023/08/29 07:18:10;;;;;;;2.73;2.53;;;16.70;99.90;;;;;;5095732;27;20204;-61
2023/08/29 07:20:37;;;;;;;2.63;2.43;;;16.80;99.90;;;;;;5091326;28;20362;-60
2023/08/29 07:23:02;;;;;;;2.60;2.40;;;16.80;99.90;;;;;;5089210;28;20193;-62
2023/08/29 07:25:43;;;;;;;2.90;2.70;;;16.80;99.90;;;;;;5087989;27;20714;-57
2023/08/29 07:28:10;;;;;;;3.00;2.80;;;16.80;99.90;;;;;;5095223;27;20848;-60
2023/08/29 07:30:47;;;;;;;4.07;2.83;;;16.70;99.90;;;;;;5091481;27;20208;-59
2023/08/29 07:33:14;;;;;;;3.93;3.63;;;16.60;99.90;;;;;;5088435;27;20197;-62
2023/08/29 07:35:41;;;;;;;3.27;2.97;;;16.60;99.90;;;;;;5088351;28;20235;-57
2023/08/29 07:38:07;;;;;;;3.67;3.10;;;16.70;99.90;;;;;;5087958;28;20298;-61
2023/08/29 07:40:36;;;;;;;3.40;3.20;;;16.70;99.90;;;;;;5096813;27;21019;-66
2023/08/29 07:43:06;;;;;;;3.60;2.97;;;16.70;99.90;;;;;;5091772;28;20251;-57
2023/08/29 07:45:32;;;;;;;5.03;3.57;;;16.80;99.90;;;;;;5088738;27;20679;-57
2023/08/29 07:47:58;;;;;;;3.93;2.87;;;16.80;99.90;;;;;;5098364;27;20755;-56
2023/08/29 07:50:25;;;;;;;5.60;4.40;;;16.80;99.90;;;;;;5100954;27;20272;-56
2023/08/29 07:52:50;;;;;;;3.83;3.17;;;16.80;99.90;;;;;;5091980;27;20209;-56
2023/08/29 07:55:16;;;;;;;3.60;3.40;;;16.80;99.90;;;;;;5093162;28;20200;-63
2023/08/29 07:57:41;;;;;;;5.80;3.67;;;16.70;99.90;;;;;;5096420;28;20283;-65
2023/08/29 08:00:10;;;;;;;3.67;3.37;;;16.70;99.90;;;;;;5095294;27;20201;-64
2023/08/29 08:02:39;;;;;;;3.73;3.37;;;16.70;99.90;;;;;;5085859;28;20288;-65
2023/08/29 08:05:15;;;;;;;6.33;5.17;;;16.60;99.90;;;;;;5089349;27;20715;-63
2023/08/29 08:07:42;;;;;;;7.23;4.07;;;16.60;99.90;;;;;;5098784;27;20244;-60
2023/08/29 08:10:10;;;;;;;3.83;3.53;;;16.60;99.90;;;;;;5088339;28;20196;-62
2023/08/29 08:12:37;;;;;;;4.30;3.83;;;16.60;99.90;;;;;;5087035;28;20732;-63
2023/08/29 08:15:04;;;;;;;8.20;4.60;;;16.60;99.90;;;;;;5090233;28;20200;-63
2023/08/29 08:17:30;;;;;;;13.23;4.87;;;16.60;99.90;;;;;;5090932;28;20207;-61
2023/08/29 08:19:55;;;;;;;6.90;4.87;;;16.60;99.90;;;;;;5092718;28;20188;-58
2023/08/29 08:22:22;;;;;;;5.27;4.77;;;16.60;99.90;;;;;;5097043;28;20200;-60
2023/08/29 08:24:48;;;;;;;5.10;4.60;;;16.60;99.90;;;;;;5090412;28;20197;-59
2023/08/29 08:27:14;;;;;;;5.23;4.77;;;16.70;99.90;;;;;;5092586;28;20212;-58
2023/08/29 08:29:39;;;;;;;4.30;3.90;;;16.70;99.90;;;;;;5090825;28;20268;-58
2023/08/29 08:32:05;;;;;;;4.83;4.40;;;16.80;99.90;;;;;;5088696;28;20374;-63
2023/08/29 08:34:31;;;;;;;4.90;4.43;;;16.80;99.90;;;;;;5096382;28;20196;-64
2023/08/29 08:36:56;;;;;;;3.63;3.43;;;16.80;99.90;;;;;;5085687;28;20925;-62
2023/08/29 08:39:22;;;;;;;5.50;5.00;;;16.70;99.90;;;;;;5095087;28;20206;-61
2023/08/29 08:41:47;;;;;;;4.60;4.20;;;16.80;99.90;;;;;;5088728;28;20243;-62
2023/08/29 08:44:17;;;;;;;4.37;4.07;;;16.70;99.90;;;;;;5087449;28;20205;-61
2023/08/29 08:46:43;;;;;;;5.10;3.87;;;16.80;99.90;;;;;;5092351;28;20299;-61
2023/08/29 08:49:09;;;;;;;3.77;3.50;;;16.80;99.90;;;;;;5111614;22;20384;-65
2023/08/29 08:51:39;;;;;;;3.80;3.50;;;16.80;99.90;;;;;;5000893;22;20834;-63
2023/08/29 08:54:07;;;;;;;3.80;3.50;;;16.80;99.90;;;;;;5020741;28;20215;-58
2023/08/29 08:56:33;;;;;;;4.23;3.43;;;16.90;99.90;;;;;;5021973;28;20250;-58
2023/08/29 08:58:59;;;;;;;4.40;4.00;;;16.90;99.90;;;;;;5018334;28;20215;-58
2023/08/29 09:01:24;;;;;;;4.00;3.70;;;16.80;99.90;;;;;;5022332;28;20211;-59
2023/08/29 09:03:50;;;;;;;4.47;4.07;;;16.90;99.90;;;;;;5026850;28;20322;-58
2023/08/29 09:06:16;;;;;;;4.57;4.07;;;17.00;99.90;;;;;;5021615;28;20208;-59
2023/08/29 09:08:41;;;;;;;3.77;3.47;;;17.10;99.90;;;;;;5025159;28;20253;-59
2023/08/29 09:11:08;;;;;;;4.33;3.93;;;17.00;99.90;;;;;;5019162;28;20221;-58
2023/08/29 09:13:34;;;;;;;4.73;4.07;;;17.00;99.90;;;;;;5024482;28;20200;-59
2023/08/29 09:16:00;;;;;;;3.93;3.63;;;17.20;99.90;;;;;;5021800;28;20197;-57
2023/08/29 09:18:32;;;;;;;4.27;3.87;;;17.10;99.90;;;;;;5027968;28;20201;-60
2023/08/29 09:21:00;;;;;;;4.40;4.00;;;17.10;99.90;;;;;;5029492;28;20196;-60
2023/08/29 09:23:28;;;;;;;3.93;3.43;;;17.10;99.90;;;;;;5032754;28;20197;-60
2023/08/29 09:26:00;;;;;;;4.00;3.70;;;17.10;99.90;;;;;;5026621;28;20663;-61
2023/08/29 09:28:27;;;;;;;4.63;4.23;;;17.30;99.90;;;;;;5028441;28;20212;-61
2023/08/29 09:30:53;;;;;;;3.60;3.27;;;17.50;99.90;;;;;;5033416;28;20778;-61
2023/08/29 09:33:23;;;;;;;3.80;3.10;;;17.50;99.90;;;;;;5033160;28;20231;-68
2023/08/29 09:35:49;;;;;;;4.77;3.30;;;17.60;99.90;;;;;;5028599;28;20212;-77
2023/08/29 09:38:18;;;;;;;5.80;3.70;;;17.70;99.90;;;;;;5031897;28;20229;-66
2023/08/29 09:40:48;;;;;;;5.10;3.53;;;17.80;99.90;;;;;;5027185;28;20847;-61
2023/08/29 09:43:15;;;;;;;4.03;3.73;;;17.90;99.90;;;;;;5026866;28;20568;-63
2023/08/29 09:45:41;;;;;;;8.47;4.03;;;17.80;99.90;;;;;;5025784;28;20234;-65
2023/08/29 09:48:08;;;;;;;3.43;3.20;;;17.90;99.90;;;;;;5031943;28;20980;-72
2023/08/29 09:50:35;;;;;;;3.60;3.30;;;18.00;99.90;;;;;;5022939;28;20214;-60
2023/08/29 09:53:02;;;;;;;3.83;3.57;;;18.00;99.90;;;;;;5011975;28;20223;-60
2023/08/29 09:55:33;;;;;;;3.20;3.00;;;18.00;99.90;;;;;;5011227;28;20192;-70
2023/08/29 09:58:01;;;;;;;3.90;3.60;;;17.80;99.90;;;;;;5014838;28;20846;-57
2023/08/29 10:00:27;;;;;;;5.90;4.30;;;17.80;99.90;;;;;;5014862;28;20304;-59
2023/08/29 10:02:56;;;;;;;4.97;4.47;;;17.80;99.90;;;;;;5010336;28;20298;-55
2023/08/29 10:05:25;;;;;;;8.03;7.23;;;17.80;99.90;;;;;;5014552;28;20197;-56
2023/08/29 10:07:56;;;;;;;5.47;4.97;;;17.80;99.90;;;;;;5011283;28;20209;-63
2023/08/29 10:10:22;;;;;;;4.43;4.13;;;17.80;99.90;;;;;;5019665;28;20193;-56
2023/08/29 10:12:49;;;;;;;5.07;4.67;;;17.80;99.90;;;;;;5015757;28;20276;-56
2023/08/29 10:15:18;;;;;;;4.87;4.57;;;17.70;99.90;;;;;;5014810;28;20258;-57
2023/08/29 10:17:44;;;;;;;4.10;3.80;;;17.70;99.90;;;;;;5017070;28;20206;-59
2023/08/29 10:20:12;;;;;;;4.13;3.60;;;17.80;99.90;;;;;;5020712;28;20211;-59
2023/08/29 10:22:40;;;;;;;3.60;3.30;;;17.70;99.90;;;;;;5015816;28;20764;-60
2023/08/29 10:25:06;;;;;;;3.80;3.50;;;17.60;99.90;;;;;;5012845;28;20209;-59
2023/08/29 10:27:33;;;;;;;4.37;3.43;;;17.70;99.90;;;;;;5012429;28;20232;-66
2023/08/29 10:30:02;;;;;;;4.27;3.87;;;17.70;99.90;;;;;;5016484;28;20212;-57
2023/08/29 10:32:29;;;;;;;4.67;3.63;;;17.80;99.90;;;;;;5016647;28;20243;-63
2023/08/29 10:34:55;;;;;;;5.13;3.50;;;17.80;99.90;;;;;;5012797;28;20235;-58
2023/08/29 10:37:22;;;;;;;7.70;3.93;;;17.90;99.90;;;;;;5052722;22;20231;-57
2023/08/29 10:39:52;;;;;;;4.40;3.73;;;17.80;99.90;;;;;;5065675;22;20230;-58
2023/08/29 10:42:18;;;;;;;5.53;3.77;;;17.70;99.90;;;;;;5046580;28;20445;-58
2023/08/29 10:44:44;;;;;;;3.23;3.03;;;17.70;99.90;;;;;;5043803;28;20278;-58
2023/08/29 10:47:26;;;;;;;4.50;3.80;;;17.70;99.90;;;;;;5045063;28;20201;-58
2023/08/29 10:49:59;;;;;;;5.20;3.03;;;17.70;99.90;;;;;;5048245;28;20249;-59
2023/08/29 10:52:36;;;;;;;3.60;3.30;;;17.60;99.90;;;;;;5037473;28;20293;-59
2023/08/29 10:55:03;;;;;;;6.20;3.40;;;17.70;99.90;;;;;;5039620;28;20199;-58
2023/08/29 10:57:30;;;;;;;3.60;3.30;;;17.80;99.90;;;;;;5037771;28;20619;-58
2023/08/29 10:59:56;;;;;;;3.90;3.60;;;17.80;99.90;;;;;;5038538;28;20565;-58
2023/08/29 11:02:30;;;;;;;3.90;3.60;;;17.70;99.90;;;;;;5037119;28;20211;-58
2023/08/29 11:05:04;;;;;;;3.90;3.27;;;17.70;99.90;;;;;;5041615;28;20269;-58
2023/08/29 11:07:31;;;;;;;4.27;3.87;;;17.80;99.90;;;;;;5042113;28;20198;-58
2023/08/29 11:10:20;;;;;;;4.07;3.67;;;17.80;99.90;;;;;;5038536;28;20207;-59
2023/08/29 11:13:06;;;;;;;4.87;3.50;;;17.90;99.90;;;;;;5036872;28;20329;-58
2023/08/29 11:15:49;;;;;;;4.03;3.60;;;17.80;99.90;;;;;;5041223;28;20264;-58
2023/08/29 11:18:26;;;;;;;4.80;4.33;;;17.80;99.90;;;;;;5032331;28;20205;-59
2023/08/29 11:20:53;;;;;;;4.90;4.50;;;17.80;99.90;;;;;;5033114;28;20337;-59
2023/08/29 11:23:20;;;;;;;5.07;4.37;;;17.80;99.90;;;;;;5035940;28;20202;-58
2023/08/29 11:25:52;;;;;;;4.13;3.83;;;17.90;99.90;;;;;;5037038;28;20513;-58
2023/08/29 11:28:18;;;;;;;4.93;4.53;;;18.10;99.90;;;;;;5036766;28;20614;-58
2023/08/29 11:30:47;;;;;;;4.73;4.33;;;18.20;99.90;;;;;;5040444;28;20787;-58
2023/08/29 11:33:14;;;;;;;4.40;3.93;;;18.20;99.90;;;;;;5040234;28;20223;-61
2023/08/29 11:35:40;;;;;;;3.70;3.10;;;18.20;99.90;;;;;;5034091;28;20200;-57
2023/08/29 11:38:06;;;;;;;3.43;3.23;;;18.20;99.90;;;;;;5031538;28;20855;-57
2023/08/29 11:40:36;;;;;;;4.67;3.97;;;18.20;99.90;;;;;;5037301;28;20203;-56
2023/08/29 11:43:01;;;;;;;4.07;2.90;;;18.30;99.90;;;;;;5031358;28;20226;-57
2023/08/29 11:45:30;;;;;;;2.97;2.77;;;18.50;99.90;;;;;;5030083;28;20196;-56
2023/08/29 11:47:56;;;;;;;3.47;3.23;;;18.70;99.90;;;;;;5040916;28;20227;-59
2023/08/29 11:50:22;;;;;;;4.50;3.90;;;18.80;99.90;;;;;;5033884;28;20240;-59
2023/08/29 11:52:47;;;;;;;4.20;3.80;;;18.80;99.90;;;;;;5032924;28;20295;-56
2023/08/29 11:55:16;;;;;;;3.67;3.43;;;18.70;99.90;;;;;;5035785;28;21136;-68
2023/08/29 11:57:44;;;;;;;4.70;3.53;;;18.70;99.90;;;;;;5039261;28;20195;-66
2023/08/29 12:00:12;;;;;;;3.80;3.40;;;18.70;99.90;;;;;;5038692;28;20205;-65
2023/08/29 12:02:38;;;;;;;4.50;4.00;;;18.80;99.90;;;;;;5042754;28;20206;-66
2023/08/29 12:05:10;;;;;;;4.10;3.80;;;19.00;99.90;;;;;;5041388;28;20209;-65
2023/08/29 12:07:36;;;;;;;5.23;4.73;;;19.00;99.90;;;;;;5032247;28;20201;-59
2023/08/29 12:10:16;;;;;;;3.93;3.60;;;19.00;99.90;;;;;;5033622;28;20356;-58
2023/08/29 12:12:41;;;;;;;3.43;3.17;;;19.20;99.90;;;;;;5026193;28;20709;-56
2023/08/29 12:15:13;;;;;;;4.40;4.10;;;19.20;99.90;;;;;;5032155;28;20297;-55
2023/08/29 12:17:41;;;;;;;4.17;3.77;;;19.40;99.90;;;;;;5033466;28;20201;-61
2023/08/29 12:20:13;;;;;;;4.10;3.80;;;19.40;99.90;;;;;;5033397;28;20582;-56
2023/08/29 12:22:42;;;;;;;3.87;3.57;;;19.50;99.90;;;;;;5033500;28;20544;-58
2023/08/29 12:25:09;;;;;;;4.07;3.70;;;19.40;99.90;;;;;;5033670;28;20233;-66
2023/08/29 12:27:35;;;;;;;3.93;3.63;;;19.20;99.90;;;;;;5036063;28;20197;-56
2023/08/29 12:30:00;;;;;;;5.23;4.20;;;19.20;99.90;;;;;;5037737;28;20212;-64
2023/08/29 12:32:27;;;;;;;4.17;3.77;;;19.30;99.90;;;;;;5034596;28;20320;-65
2023/08/29 12:34:54;;;;;;;5.27;4.87;;;19.30;99.90;;;;;;5030599;28;20198;-64
2023/08/29 12:37:20;;;;;;;4.10;3.70;;;19.30;99.90;;;;;;5039602;28;20260;-56
2023/08/29 12:39:46;;;;;;;4.90;4.43;;;19.10;99.90;;;;;;5032895;28;20225;-57
2023/08/29 12:42:12;;;;;;;4.60;4.20;;;19.00;99.90;;;;;;5033938;28;20259;-57
2023/08/29 12:44:38;;;;;;;3.97;3.60;;;18.90;99.90;;;;;;5017873;28;20232;-56
2023/08/29 12:47:04;;;;;;;7.23;6.10;;;18.80;99.90;;;;;;5033345;28;20201;-57